createdAt,value
2018-09-09T07:35:21.033Z,69.00
2018-09-09T07:37:49.191Z,69.70
2018-09-09T07:40:17.309Z,69.20
2018-09-09T07:42:45.479Z,69.70
2018-09-09T07:45:13.639Z,69.40
2018-09-09T07:47:41.855Z,69.30
2018-09-09T07:50:10.076Z,68.90
2018-09-09T07:52:38.664Z,68.90
2018-09-09T07:55:06.791Z,68.80
2018-09-09T07:57:34.924Z,68.60
2018-09-09T08:00:03.095Z,67.60
2018-09-09T08:02:31.412Z,67.50
2018-09-09T08:04:59.552Z,67.40
2018-09-09T08:07:27.725Z,65.80
2018-09-09T08:09:55.869Z,65.30
2018-09-09T08:12:23.981Z,64.50
2018-09-09T08:14:52.126Z,64.40
2018-09-09T08:17:20.248Z,63.60
2018-09-09T08:19:48.392Z,63.30
2018-09-09T08:22:16.525Z,63.30
2018-09-09T08:24:44.626Z,62.10
2018-09-09T08:27:12.775Z,61.60
2018-09-09T08:29:41.042Z,61.60
2018-09-09T08:32:09.168Z,61.60
2018-09-09T08:34:37.294Z,61.30
2018-09-09T08:37:05.404Z,60.60
2018-09-09T08:39:33.546Z,61.30
2018-09-09T08:42:01.710Z,59.70
2018-09-09T08:44:29.887Z,60.50
2018-09-09T08:46:58.021Z,60.60
2018-09-09T08:49:26.127Z,60.60
2018-09-09T08:51:54.303Z,60.80
2018-09-09T08:54:22.432Z,59.30
2018-09-09T08:56:50.552Z,58.70
2018-09-09T08:59:18.675Z,59.30
2018-09-09T09:01:46.883Z,58.80
2018-09-09T09:04:14.993Z,58.90
2018-09-09T09:06:43.156Z,58.80
2018-09-09T09:09:11.702Z,58.70
2018-09-09T09:11:39.857Z,59.60
2018-09-09T09:14:08.015Z,58.90
2018-09-09T09:16:36.209Z,58.60
2018-09-09T09:19:04.421Z,58.80
2018-09-09T09:21:32.590Z,58.20
2018-09-09T09:24:00.696Z,59.20
2018-09-09T09:26:28.807Z,58.10
2018-09-09T09:28:56.963Z,57.40
2018-09-09T09:31:25.101Z,57.40
2018-09-09T09:33:53.212Z,58.10
2018-09-09T09:36:21.344Z,57.20
2018-09-09T09:38:49.491Z,56.70
2018-09-09T09:41:17.637Z,57.50
2018-09-09T09:43:45.808Z,56.20
2018-09-09T09:46:13.931Z,55.20
2018-09-09T09:48:42.056Z,54.90
2018-09-09T09:51:10.217Z,55.50
2018-09-09T09:53:38.401Z,56.00
2018-09-09T09:56:06.471Z,55.50
2018-09-09T09:58:34.838Z,54.10
2018-09-09T10:01:02.967Z,52.20
2018-09-09T10:03:31.139Z,53.50
2018-09-09T10:05:59.243Z,53.80
2018-09-09T10:08:27.352Z,53.10
2018-09-09T10:10:55.500Z,52.50
2018-09-09T10:13:23.652Z,52.60
2018-09-09T10:15:51.756Z,52.50
2018-09-09T10:18:19.876Z,52.60
2018-09-09T10:20:48.024Z,52.20
2018-09-09T10:23:16.201Z,51.50
2018-09-09T10:25:44.335Z,51.00
2018-09-09T10:28:12.476Z,50.50
2018-09-09T10:30:40.590Z,48.80
2018-09-09T10:33:08.737Z,48.60
2018-09-09T10:35:36.868Z,49.60
2018-09-09T10:38:04.977Z,50.40
2018-09-09T10:40:33.112Z,48.30
2018-09-09T10:43:01.299Z,48.10
2018-09-09T10:45:29.425Z,45.90
2018-09-09T10:47:57.577Z,45.90
2018-09-09T10:50:25.773Z,47.00
2018-09-09T10:52:53.993Z,46.20
2018-09-09T10:55:22.150Z,46.60
2018-09-09T10:57:50.320Z,46.40
2018-09-09T11:00:18.439Z,45.60
2018-09-09T11:02:46.600Z,44.00
2018-09-09T11:05:14.748Z,45.20
2018-09-09T11:07:42.976Z,45.20
2018-09-09T11:10:11.133Z,44.90
2018-09-09T11:12:39.394Z,45.30
2018-09-09T11:15:07.437Z,44.20
2018-09-09T11:17:35.543Z,43.50
2018-09-09T11:20:03.679Z,42.60
2018-09-09T11:22:31.854Z,43.10
2018-09-09T11:25:00.046Z,43.00
2018-09-09T11:27:28.181Z,43.10
2018-09-09T11:29:56.323Z,43.70
2018-09-09T11:32:24.483Z,42.40
2018-09-09T11:34:52.612Z,42.00
2018-09-09T11:37:20.812Z,42.30
2018-09-09T11:39:48.928Z,43.20
2018-09-09T11:42:17.192Z,41.40
2018-09-09T11:44:45.302Z,42.40
2018-09-09T11:47:13.454Z,42.00
2018-09-09T11:49:41.615Z,40.00
2018-09-09T11:52:09.747Z,40.80
2018-09-09T11:54:37.964Z,38.80
2018-09-09T11:57:06.163Z,39.50
2018-09-09T11:59:34.374Z,39.00
2018-09-09T12:02:02.590Z,40.00
2018-09-09T12:04:30.706Z,38.70
2018-09-09T12:06:58.821Z,39.20
2018-09-09T12:09:26.944Z,39.30
2018-09-09T12:11:55.068Z,37.90
2018-09-09T12:14:23.200Z,39.00
2018-09-09T12:16:51.344Z,38.40
2018-09-09T12:19:19.465Z,39.80
2018-09-09T12:21:47.584Z,38.80
2018-09-09T12:24:15.708Z,38.40
2018-09-09T12:26:43.848Z,38.70
2018-09-09T12:29:11.981Z,40.60
2018-09-09T12:31:40.131Z,40.10
2018-09-09T12:34:08.251Z,39.60
2018-09-09T12:36:36.388Z,38.30
2018-09-09T12:39:06.140Z,39.40
2018-09-09T12:41:34.392Z,39.40
2018-09-09T12:44:07.977Z,39.00
2018-09-09T12:46:41.483Z,39.00
2018-09-09T12:49:09.694Z,39.10
2018-09-09T12:51:37.883Z,37.70
2018-09-09T12:54:06.022Z,38.00
2018-09-09T12:56:34.231Z,38.30
2018-09-09T12:59:02.520Z,38.30
2018-09-09T13:01:30.678Z,39.70
2018-09-09T13:03:58.972Z,38.10
2018-09-09T13:06:27.163Z,38.00
2018-09-09T13:08:55.286Z,38.20
2018-09-09T13:11:23.414Z,39.40
2018-09-09T13:13:51.520Z,38.10
2018-09-09T13:16:19.647Z,38.60
2018-09-09T13:18:47.796Z,39.30
2018-09-09T13:21:15.904Z,39.60
2018-09-09T13:23:44.066Z,39.90
2018-09-09T13:26:12.188Z,39.10
2018-09-09T13:28:40.348Z,40.30
2018-09-09T13:31:08.480Z,40.20
2018-09-09T13:33:36.590Z,39.70
2018-09-09T13:36:04.794Z,38.90
2018-09-09T13:38:39.314Z,39.60
2018-09-09T13:41:07.456Z,39.00
2018-09-09T13:43:35.563Z,38.50
2018-09-09T13:46:03.724Z,39.60
2018-09-09T13:48:31.910Z,39.50
2018-09-09T13:51:00.300Z,39.90
2018-09-09T13:53:28.467Z,39.00
2018-09-09T13:55:56.596Z,39.50
2018-09-09T13:58:24.726Z,39.40
2018-09-09T14:00:52.900Z,38.80
2018-09-09T14:03:21.020Z,39.00
2018-09-09T14:05:49.252Z,39.10
2018-09-09T14:08:17.355Z,38.90
2018-09-09T14:10:45.465Z,38.20
2018-09-09T14:13:13.585Z,38.90
2018-09-09T14:15:41.707Z,39.10
2018-09-09T14:18:09.843Z,38.00
2018-09-09T14:20:37.939Z,38.40
2018-09-09T14:23:06.076Z,38.30
2018-09-09T14:25:34.197Z,38.30
2018-09-09T14:28:02.406Z,38.40
2018-09-09T14:30:30.596Z,38.50
2018-09-09T14:32:58.704Z,38.10
2018-09-09T14:35:26.901Z,38.70
2018-09-09T14:37:55.053Z,38.40
2018-09-09T14:40:23.187Z,38.30
2018-09-09T14:42:51.333Z,37.80
2018-09-09T14:45:19.452Z,37.80
2018-09-09T14:47:47.559Z,38.30
2018-09-09T14:50:15.665Z,38.30
2018-09-09T14:52:43.871Z,36.60
2018-09-09T14:55:12.007Z,38.30
2018-09-09T14:57:40.115Z,37.90
2018-09-09T15:00:08.295Z,37.60
2018-09-09T15:02:36.702Z,36.30
2018-09-09T15:05:04.890Z,36.60
2018-09-09T15:07:33.250Z,37.30
2018-09-09T15:10:01.456Z,37.60
2018-09-09T15:12:29.671Z,37.20
2018-09-09T15:14:58.126Z,37.20
2018-09-09T15:17:26.308Z,38.10
2018-09-09T15:19:54.792Z,37.90
2018-09-09T15:22:22.965Z,36.90
2018-09-09T15:24:51.040Z,36.40
2018-09-09T15:27:19.243Z,37.00
2018-09-09T15:29:47.364Z,37.00
2018-09-09T15:32:15.846Z,38.30
2018-09-09T15:34:44.461Z,38.30
2018-09-09T15:37:12.986Z,38.40
2018-09-09T15:39:44.738Z,38.30
2018-09-09T15:42:13.156Z,39.00
2018-09-09T15:44:41.325Z,38.20
2018-09-09T15:47:09.470Z,37.10
2018-09-09T15:49:38.632Z,37.10
2018-09-09T15:52:07.684Z,37.70
2018-09-09T15:54:35.769Z,39.00
2018-09-09T15:57:03.927Z,39.30
2018-09-09T15:59:32.748Z,39.70
2018-09-09T16:02:00.970Z,38.90
2018-09-09T16:04:29.176Z,39.40
2018-09-09T16:06:57.414Z,39.70
2018-09-09T16:09:25.658Z,39.50
2018-09-09T16:11:53.818Z,39.60
2018-09-09T16:14:21.905Z,39.90
2018-09-09T16:16:50.151Z,40.00
2018-09-09T16:19:18.303Z,39.90
2018-09-09T16:21:46.500Z,38.60
2018-09-09T16:24:14.688Z,39.40
2018-09-09T16:26:42.859Z,39.00
2018-09-09T16:29:11.057Z,38.40
2018-09-09T16:31:39.169Z,39.80
2018-09-09T16:34:07.325Z,39.40
2018-09-09T16:36:35.569Z,39.30
2018-09-09T16:39:04.895Z,40.00
2018-09-09T16:41:33.207Z,40.60
2018-09-09T16:44:01.546Z,41.40
2018-09-09T16:46:31.733Z,40.40
2018-09-09T16:48:59.927Z,40.60
2018-09-09T16:51:28.088Z,41.20
2018-09-09T16:53:56.369Z,41.20
2018-09-09T16:56:24.560Z,42.50
2018-09-09T16:58:52.731Z,43.20
2018-09-09T17:01:21.098Z,43.50
2018-09-09T17:03:49.190Z,44.70
2018-09-09T17:06:17.688Z,45.20
2018-09-09T17:08:46.101Z,45.60
2018-09-09T17:11:14.271Z,46.00
2018-09-09T17:13:42.404Z,46.70
2018-09-09T17:16:17.699Z,47.20
2018-09-09T17:18:45.871Z,47.50
2018-09-09T17:21:14.267Z,48.00
2018-09-09T17:23:42.879Z,48.60
2018-09-09T17:26:11.279Z,48.20
2018-09-09T17:28:39.482Z,49.10
2018-09-09T17:31:07.804Z,49.50
2018-09-09T17:33:35.931Z,49.70
2018-09-09T17:36:04.073Z,50.10
2018-09-09T17:38:32.427Z,50.30
2018-09-09T17:41:00.666Z,51.00
2018-09-09T17:43:28.809Z,51.60
2018-09-09T17:45:56.921Z,51.60
2018-09-09T17:48:25.078Z,51.90
2018-09-09T17:50:53.315Z,52.00
2018-09-09T17:53:21.436Z,52.40
2018-09-09T17:55:49.567Z,52.50
2018-09-09T17:58:17.695Z,52.90
2018-09-09T18:00:45.834Z,53.30
2018-09-09T18:03:13.952Z,53.80
2018-09-09T18:05:42.082Z,54.00
2018-09-09T18:08:10.208Z,53.30
2018-09-09T18:10:38.365Z,53.50
2018-09-09T18:13:06.490Z,54.40
2018-09-09T18:15:34.682Z,53.40
2018-09-09T18:18:02.811Z,54.20
2018-09-09T18:20:30.997Z,54.30
2018-09-09T18:22:59.092Z,55.00
2018-09-09T18:25:27.227Z,55.60
2018-09-09T18:27:55.362Z,54.90
2018-09-09T18:30:23.492Z,55.10
2018-09-09T18:32:51.669Z,55.20
2018-09-09T18:35:19.826Z,54.90
2018-09-09T18:37:47.960Z,56.00
2018-09-09T18:40:16.091Z,56.00
2018-09-09T18:42:44.245Z,55.90
2018-09-09T18:45:12.408Z,55.80
2018-09-09T18:47:40.558Z,56.70
2018-09-09T18:50:08.687Z,56.50
2018-09-09T18:52:36.812Z,56.60
2018-09-09T18:55:05.044Z,56.60
2018-09-09T18:57:33.152Z,56.70
2018-09-09T19:00:01.377Z,56.60
2018-09-09T19:02:29.622Z,56.40
2018-09-09T19:04:57.761Z,56.50
2018-09-09T19:07:25.901Z,56.60
2018-09-09T19:09:54.033Z,57.00
2018-09-09T19:12:26.355Z,57.20
2018-09-09T19:14:54.539Z,57.10
2018-09-09T19:17:22.690Z,57.10
2018-09-09T19:19:50.849Z,57.00
2018-09-09T19:22:19.028Z,57.60
2018-09-09T19:24:47.164Z,57.80
2018-09-09T19:27:15.304Z,58.20
2018-09-09T19:29:43.528Z,57.90
2018-09-09T19:32:11.656Z,58.20
2018-09-09T19:34:39.912Z,57.70
2018-09-09T19:37:08.048Z,58.00
2018-09-09T19:39:36.629Z,58.20
2018-09-09T19:43:09.907Z,58.20
2018-09-09T19:45:38.161Z,58.60
2018-09-09T19:48:08.525Z,58.50
2018-09-09T19:50:37.709Z,58.90
2018-09-09T19:53:05.855Z,58.80
2018-09-09T19:55:35.867Z,58.60
2018-09-09T19:58:04.052Z,58.50
2018-09-09T20:00:32.628Z,58.40
2018-09-09T20:03:00.792Z,58.80
2018-09-09T20:08:12.046Z,58.70
2018-09-09T20:10:42.071Z,58.90
2018-09-09T20:13:12.682Z,59.20
2018-09-09T20:15:42.205Z,59.30
2018-09-09T20:18:12.231Z,58.80
2018-09-09T20:20:40.394Z,58.90
2018-09-09T20:23:15.586Z,59.40
2018-09-09T20:25:43.771Z,59.40
2018-09-09T20:28:12.527Z,59.30
2018-09-09T20:30:41.293Z,59.40
2018-09-09T20:33:09.430Z,59.30
2018-09-09T20:35:37.553Z,59.50
2018-09-09T20:38:05.717Z,59.40
2018-09-09T20:40:33.853Z,59.70
2018-09-09T20:43:01.996Z,59.90
2018-09-09T20:45:30.133Z,60.10
2018-09-09T20:47:58.251Z,60.00
2018-09-09T20:50:26.383Z,60.40
2018-09-09T20:52:54.524Z,60.50
2018-09-09T20:55:22.665Z,60.40
2018-09-09T20:57:50.809Z,60.80
